Time;durP1;ratioP1;P1;durP2;ratioP2;P2;SDS_P1;SDS_P2;PMS_P1;PMS_P2;Temp;Humidity;BMP_temperature;BMP_pressure;BME280_temperature;BME280_humidity;BME280_pressure;Samples;Min_cycle;Max_cycle;Signal;HPM_P1;HPM_P2
2022/06/16 00:02:12;;;;;;;13.07;6.60;;;16.90;99.90;;;;;;5112849;28;20072;-74
2022/06/16 00:04:38;;;;;;;10.85;5.78;;;16.80;99.90;;;;;;5112783;28;20030;-68
2022/06/16 00:07:04;;;;;;;13.82;6.07;;;16.90;99.90;;;;;;5112941;28;20102;-72
2022/06/16 00:09:30;;;;;;;19.73;6.97;;;16.90;99.90;;;;;;5113054;27;20024;-74
2022/06/16 00:11:56;;;;;;;19.67;6.97;;;16.90;99.90;;;;;;5112711;28;20540;-75
2022/06/16 00:14:23;;;;;;;13.05;7.22;;;16.90;99.90;;;;;;5116032;27;20023;-73
2022/06/16 00:16:49;;;;;;;8.73;5.68;;;16.80;99.90;;;;;;5112445;28;20107;-69
2022/06/16 00:19:15;;;;;;;15.50;6.45;;;16.80;99.90;;;;;;5112786;27;20027;-74
2022/06/16 00:21:41;;;;;;;13.30;6.18;;;16.70;99.90;;;;;;5113391;27;20106;-74
2022/06/16 00:24:07;;;;;;;16.42;6.68;;;16.70;99.90;;;;;;5121657;27;20058;-75
2022/06/16 00:26:33;;;;;;;14.48;6.60;;;16.70;99.90;;;;;;5134490;27;20102;-73
2022/06/16 00:28:59;;;;;;;14.68;6.63;;;16.70;99.90;;;;;;5115565;27;20114;-75
2022/06/16 00:31:25;;;;;;;14.15;6.30;;;16.60;99.90;;;;;;5134345;27;20046;-74
2022/06/16 00:33:51;;;;;;;13.55;6.78;;;16.70;99.90;;;;;;5134493;27;20106;-74
2022/06/16 00:36:17;;;;;;;12.02;6.35;;;16.70;99.90;;;;;;5134574;27;20032;-74
2022/06/16 00:38:46;;;;;;;13.05;6.53;;;16.60;99.90;;;;;;5115980;27;20031;-74
2022/06/16 00:41:12;;;;;;;21.70;7.25;;;16.60;99.90;;;;;;5134474;27;20019;-73
2022/06/16 00:43:39;;;;;;;18.00;7.60;;;16.50;99.90;;;;;;5115711;27;20042;-74
2022/06/16 00:46:18;;;;;;;19.80;6.82;;;16.50;99.90;;;;;;5115767;27;20376;-73
2022/06/16 00:48:52;;;;;;;16.75;6.53;;;16.50;99.90;;;;;;5133608;27;20034;-74
2022/06/16 00:51:25;;;;;;;17.27;6.60;;;16.50;99.90;;;;;;5121293;27;20043;-68
2022/06/16 00:53:54;;;;;;;11.68;6.13;;;16.50;99.90;;;;;;5132647;27;20469;-74
2022/06/16 00:56:21;;;;;;;12.25;6.45;;;16.50;99.90;;;;;;5115407;27;20464;-74
2022/06/16 00:58:58;;;;;;;12.38;5.97;;;16.50;99.90;;;;;;5125806;27;20388;-74
2022/06/16 01:01:25;;;;;;;10.57;5.93;;;16.40;99.90;;;;;;5120424;27;20421;-74
2022/06/16 01:06:37;;;;;;;12.65;6.90;;;16.30;99.90;;;;;;5114909;27;20043;-71
2022/06/16 01:09:07;;;;;;;15.43;6.68;;;16.20;99.90;;;;;;5133625;27;20465;-75
2022/06/16 01:14:52;;;;;;;10.10;5.32;;;16.20;99.90;;;;;;5129495;27;20637;-74
2022/06/16 01:17:38;;;;;;;13.23;5.32;;;16.20;99.90;;;;;;5123856;27;20031;-74
2022/06/16 01:20:26;;;;;;;12.43;6.22;;;16.10;99.90;;;;;;5125432;27;20603;-74
2022/06/16 01:23:22;;;;;;;11.52;5.97;;;16.10;99.90;;;;;;5097368;27;20130;-74
2022/06/16 01:26:26;;;;;;;13.90;6.30;;;16.10;99.90;;;;;;5103867;27;20029;-73
2022/06/16 01:29:17;;;;;;;12.77;6.30;;;16.10;99.90;;;;;;5132736;27;20070;-74
2022/06/16 01:32:04;;;;;;;11.80;6.32;;;16.10;99.90;;;;;;5114233;27;20054;-74
2022/06/16 01:34:53;;;;;;;14.02;6.72;;;16.00;99.90;;;;;;5115025;27;20392;-74
2022/06/16 01:37:42;;;;;;;13.25;6.38;;;15.80;99.90;;;;;;5114386;27;20019;-72
2022/06/16 01:40:23;;;;;;;15.30;6.63;;;15.70;99.90;;;;;;5114694;27;20027;-74
2022/06/16 01:43:31;;;;;;;11.20;5.80;;;15.70;99.90;;;;;;5133123;27;20030;-74
2022/06/16 01:46:00;;;;;;;13.05;5.95;;;15.70;99.90;;;;;;5116069;27;20051;-73
2022/06/16 01:48:28;;;;;;;11.25;5.78;;;15.80;99.90;;;;;;5127782;27;20062;-62
2022/06/16 01:51:18;;;;;;;11.18;6.18;;;15.80;99.90;;;;;;5116335;27;20487;-74
2022/06/16 01:54:13;;;;;;;12.75;6.30;;;15.70;99.90;;;;;;5113160;27;20126;-73
2022/06/16 01:56:51;;;;;;;9.77;6.05;;;15.60;99.90;;;;;;5123846;27;20110;-74
2022/06/16 01:59:27;;;;;;;17.33;6.88;;;15.60;99.90;;;;;;5114778;27;20369;-74
2022/06/16 02:02:00;;;;;;;11.98;6.03;;;15.60;99.90;;;;;;5114504;28;20030;-74
2022/06/16 02:04:36;;;;;;;8.57;5.60;;;15.60;99.90;;;;;;5095985;28;20026;-73
2022/06/16 02:07:10;;;;;;;10.40;5.95;;;15.60;99.90;;;;;;5100111;28;20024;-74
2022/06/16 02:09:44;;;;;;;10.23;6.03;;;15.60;99.90;;;;;;5132214;27;20019;-75
2022/06/16 02:15:15;;;;;;;14.30;6.57;;;15.50;99.90;;;;;;5111743;28;20034;-74
2022/06/16 02:17:55;;;;;;;12.20;6.20;;;15.50;99.90;;;;;;5113582;28;20516;-69
2022/06/16 02:20:27;;;;;;;12.43;6.18;;;15.40;99.90;;;;;;5132950;28;20024;-74
2022/06/16 02:22:53;;;;;;;12.23;6.43;;;15.30;99.90;;;;;;5110914;27;20046;-74
2022/06/16 02:25:19;;;;;;;13.70;7.47;;;15.30;99.90;;;;;;5106138;27;20062;-74
2022/06/16 02:27:45;;;;;;;19.02;7.35;;;15.30;99.90;;;;;;5117763;27;20082;-73
2022/06/16 02:30:12;;;;;;;13.07;7.57;;;15.40;99.90;;;;;;5112452;27;20020;-73
2022/06/16 02:33:00;;;;;;;16.20;8.48;;;15.40;99.90;;;;;;5106608;27;20039;-74
2022/06/16 02:35:50;;;;;;;14.77;6.55;;;15.50;99.90;;;;;;5118781;27;20046;-72
2022/06/16 02:38:24;;;;;;;17.65;7.15;;;15.60;99.90;;;;;;5136263;27;20329;-72
2022/06/16 02:41:25;;;;;;;11.27;6.45;;;15.50;99.90;;;;;;5125543;27;20023;-73
2022/06/16 02:44:04;;;;;;;14.68;7.05;;;15.50;99.90;;;;;;5107755;27;20027;-74
2022/06/16 02:46:40;;;;;;;12.23;6.75;;;15.60;99.90;;;;;;5128681;27;20072;-74
2022/06/16 02:49:17;;;;;;;12.95;6.70;;;15.60;99.90;;;;;;5111612;27;20059;-69
2022/06/16 02:52:15;;;;;;;11.90;6.15;;;15.60;99.90;;;;;;5108438;27;20099;-71
2022/06/16 02:55:07;;;;;;;16.13;7.22;;;15.60;99.90;;;;;;5103298;28;20023;-70
2022/06/16 02:57:36;;;;;;;20.50;6.40;;;15.70;99.90;;;;;;5113132;28;20055;-74
2022/06/16 03:00:08;;;;;;;15.32;7.15;;;15.70;99.90;;;;;;5128251;27;20084;-72
2022/06/16 03:02:38;;;;;;;10.80;6.53;;;15.70;99.90;;;;;;5101379;27;20035;-74
2022/06/16 03:05:07;;;;;;;16.13;7.13;;;15.70;99.90;;;;;;5117782;27;20118;-75
2022/06/16 03:07:34;;;;;;;12.00;6.03;;;15.70;99.90;;;;;;5135974;27;20071;-74
2022/06/16 03:13:19;;;;;;;12.57;6.30;;;15.90;99.90;;;;;;5065326;28;20045;-73
2022/06/16 03:15:45;;;;;;;12.98;6.53;;;15.90;99.90;;;;;;5072943;28;20028;-74
2022/06/16 03:18:14;;;;;;;18.73;7.07;;;15.90;99.90;;;;;;5054996;28;20379;-74
2022/06/16 03:20:43;;;;;;;14.48;7.13;;;15.90;99.90;;;;;;5069924;28;20044;-72
2022/06/16 03:23:09;;;;;;;13.15;7.13;;;15.90;99.90;;;;;;5049695;28;20391;-74
2022/06/16 03:25:37;;;;;;;15.57;6.95;;;15.90;99.90;;;;;;5055149;28;20103;-74
2022/06/16 03:28:06;;;;;;;13.80;7.45;;;16.00;99.90;;;;;;5055316;28;20032;-73
2022/06/16 03:30:38;;;;;;;17.58;7.07;;;16.10;99.90;;;;;;5052211;28;20104;-73
2022/06/16 03:33:06;;;;;;;18.33;8.02;;;16.10;99.90;;;;;;5053639;28;20040;-73
2022/06/16 03:35:34;;;;;;;18.60;7.40;;;16.30;99.90;;;;;;5054399;28;20378;-73
2022/06/16 03:38:04;;;;;;;11.00;7.13;;;16.40;99.90;;;;;;5055394;28;20033;-74
2022/06/16 03:40:30;;;;;;;15.70;7.53;;;16.60;99.90;;;;;;5053304;28;20048;-73
2022/06/16 03:42:56;;;;;;;14.57;7.55;;;17.20;99.90;;;;;;5071822;28;20052;-74
2022/06/16 03:45:26;;;;;;;13.20;6.88;;;18.30;99.90;;;;;;5068876;27;20043;-69
2022/06/16 03:47:53;;;;;;;12.32;7.40;;;19.20;99.90;;;;;;5125822;27;20014;-74
2022/06/16 03:50:20;;;;;;;12.25;6.95;;;20.00;99.90;;;;;;5118498;27;20408;-75
2022/06/16 03:52:50;;;;;;;14.10;6.82;;;20.20;99.90;;;;;;5103800;27;20046;-74
2022/06/16 03:55:17;;;;;;;13.90;6.93;;;20.70;99.90;;;;;;5116797;27;20027;-72
2022/06/16 03:57:44;;;;;;;14.55;7.45;;;21.90;98.30;;;;;;5102292;27;20491;-75
2022/06/16 04:00:15;;;;;;;15.43;7.80;;;22.60;95.90;;;;;;5116281;27;20019;-75
2022/06/16 04:02:49;;;;;;;11.50;6.65;;;23.50;92.20;;;;;;5135097;27;20040;-73
2022/06/16 04:05:23;;;;;;;13.05;6.25;;;23.70;88.90;;;;;;5116351;27;20118;-73
2022/06/16 04:08:06;;;;;;;13.00;6.25;;;24.30;87.60;;;;;;5105350;28;20032;-73
2022/06/16 04:10:35;;;;;;;11.65;6.32;;;24.20;81.70;;;;;;5111972;27;20396;-73
2022/06/16 04:13:05;;;;;;;9.02;6.20;;;24.70;81.10;;;;;;5115929;27;20035;-74
2022/06/16 04:15:35;;;;;;;9.80;6.22;;;26.10;93.00;;;;;;5115563;27;20422;-74
2022/06/16 04:18:03;;;;;;;14.00;6.00;;;;;;;;;;5114117;27;20034;-74
2022/06/16 04:20:33;;;;;;;7.55;5.28;;;26.40;77.60;;;;;;5115417;27;20527;-72
2022/06/16 04:23:10;;;;;;;11.52;5.90;;;26.90;73.80;;;;;;5101790;27;20043;-74
2022/06/16 04:25:37;;;;;;;11.10;6.20;;;;;;;;;;5120997;27;20118;-72
2022/06/16 04:28:13;;;;;;;10.25;6.10;;;27.50;74.10;;;;;;5115484;27;20027;-69
2022/06/16 04:30:47;;;;;;;10.30;6.15;;;27.90;71.50;;;;;;5115840;27;20026;-77
2022/06/16 04:33:13;;;;;;;13.02;5.90;;;28.60;71.50;;;;;;5115562;27;20035;-76
2022/06/16 04:35:41;;;;;;;9.48;5.95;;;28.40;67.90;;;;;;5134776;27;20019;-76
2022/06/16 04:38:09;;;;;;;10.40;5.50;;;28.80;69.00;;;;;;5115421;27;20130;-78
2022/06/16 04:40:37;;;;;;;10.90;6.18;;;28.40;69.00;;;;;;5115694;27;20047;-76
2022/06/16 04:43:14;;;;;;;10.52;6.20;;;;;;;;;;5115790;27;20061;-74
2022/06/16 04:45:41;;;;;;;12.02;6.05;;;29.30;87.40;;;;;;5107249;27;20030;-77
2022/06/16 04:48:08;;;;;;;14.07;6.18;;;;;;;;;;5110010;27;20051;-77
2022/06/16 04:50:36;;;;;;;11.95;6.20;;;;;;;;;;5103289;28;20520;-78
2022/06/16 04:53:04;;;;;;;10.23;5.72;;;;;;;;;;5114192;27;20453;-77
2022/06/16 04:55:37;;;;;;;13.23;6.60;;;29.30;84.90;;;;;;5113632;27;20023;-74
2022/06/16 04:58:25;;;;;;;11.75;6.40;;;28.20;84.40;;;;;;5098334;28;20076;-67
2022/06/16 05:01:05;;;;;;;10.87;6.30;;;27.10;86.10;;;;;;5095453;27;20085;-78
2022/06/16 05:03:50;;;;;;;17.30;7.15;;;26.00;72.60;;;;;;5093997;28;20023;-77
2022/06/16 05:06:33;;;;;;;14.73;6.93;;;;;;;;;;5098500;28;20032;-77
2022/06/16 05:09:17;;;;;;;16.42;6.43;;;24.80;81.00;;;;;;5094026;28;20381;-62
2022/06/16 05:12:02;;;;;;;16.63;7.53;;;24.30;87.30;;;;;;5128418;27;20038;-77
2022/06/16 05:14:46;;;;;;;13.73;7.22;;;24.30;79.70;;;;;;5133433;27;20177;-76
2022/06/16 05:17:46;;;;;;;13.90;7.10;;;24.20;81.30;;;;;;5114595;27;20082;-77
2022/06/16 05:20:32;;;;;;;12.18;7.07;;;;;;;;;;5112303;27;20023;-78
2022/06/16 05:23:17;;;;;;;12.38;7.00;;;23.90;83.50;;;;;;5129618;27;20050;-76
2022/06/16 05:25:59;;;;;;;;;;;23.60;86.70;;;;;;5115783;27;20031;-76
2022/06/16 05:28:47;;;;;;;16.40;6.95;;;23.40;90.90;;;;;;5114703;27;19911;-76
2022/06/16 05:31:27;;;;;;;13.77;7.50;;;23.40;90.60;;;;;;5114711;27;20446;-76
2022/06/16 05:33:56;;;;;;;18.38;7.25;;;23.40;93.60;;;;;;5114738;27;20027;-76
2022/06/16 05:36:47;;;;;;;19.20;7.35;;;23.60;93.00;;;;;;5132859;27;20025;-76
2022/06/16 05:39:33;;;;;;;13.20;8.02;;;23.60;93.70;;;;;;5114316;27;20508;-77
2022/06/16 05:42:20;;;;;;;12.15;6.97;;;23.70;93.30;;;;;;5114212;27;20034;-73
2022/06/16 05:45:14;;;;;;;13.48;7.15;;;23.70;92.90;;;;;;5114491;27;20023;-76
2022/06/16 05:47:51;;;;;;;15.85;7.22;;;23.90;92.50;;;;;;5114586;27;20121;-76
2022/06/16 05:50:18;;;;;;;15.57;7.35;;;23.60;93.20;;;;;;5132638;27;20539;-76
2022/06/16 05:52:45;;;;;;;12.02;6.13;;;23.90;93.70;;;;;;5114495;27;20031;-76
2022/06/16 05:55:27;;;;;;;12.57;6.15;;;23.60;92.60;;;;;;5113841;27;20015;-75
2022/06/16 05:57:53;;;;;;;9.73;5.82;;;24.20;92.50;;;;;;5132263;27;20022;-76
2022/06/16 06:00:20;;;;;;;15.85;6.63;;;24.20;89.40;;;;;;5114232;28;20109;-74
2022/06/16 06:02:59;;;;;;;12.32;6.32;;;24.00;89.50;;;;;;5132838;27;20385;-76
2022/06/16 06:05:37;;;;;;;13.25;6.35;;;24.50;89.40;;;;;;5105794;28;20080;-76
2022/06/16 06:16:35;;;;;;;12.00;6.18;;;25.20;85.50;;;;;;5132531;27;20016;-77
2022/06/16 06:19:26;;;;;;;13.18;6.72;;;25.20;85.10;;;;;;5127075;27;20471;-76
2022/06/16 06:21:58;;;;;;;14.52;6.32;;;25.50;84.00;;;;;;5115606;28;20036;-77
2022/06/16 06:24:27;;;;;;;9.63;6.35;;;25.40;86.00;;;;;;5105282;27;20035;-76
2022/06/16 06:26:54;;;;;;;13.55;6.88;;;25.60;82.00;;;;;;5113954;28;20019;-77
2022/06/16 06:29:21;;;;;;;16.58;7.50;;;25.40;84.70;;;;;;5114110;28;20392;-76
2022/06/16 06:31:46;;;;;;;13.20;7.53;;;25.60;82.70;;;;;;5114107;28;20032;-76
2022/06/16 06:34:15;;;;;;;14.48;6.72;;;25.70;81.40;;;;;;5112654;28;20023;-74
2022/06/16 06:36:41;;;;;;;14.32;7.57;;;25.70;80.80;;;;;;5132419;28;20027;-76
2022/06/16 06:39:08;;;;;;;12.88;6.95;;;25.30;81.00;;;;;;5120259;28;20477;-77
2022/06/16 06:41:34;;;;;;;11.63;6.40;;;25.70;81.00;;;;;;5125345;28;20027;-77
2022/06/16 06:44:00;;;;;;;12.70;6.95;;;26.20;81.20;;;;;;5132540;27;20015;-74
2022/06/16 06:46:26;;;;;;;10.98;6.85;;;26.40;83.80;;;;;;5121436;28;20050;-77
2022/06/16 06:48:52;;;;;;;17.17;7.60;;;25.80;80.50;;;;;;5128689;27;20055;-74
2022/06/16 06:51:18;;;;;;;13.73;6.82;;;25.80;81.30;;;;;;5132126;28;20043;-77
2022/06/16 06:53:44;;;;;;;15.45;7.15;;;25.40;80.00;;;;;;5132225;27;20027;-77
2022/06/16 06:56:12;;;;;;;14.23;7.40;;;26.00;81.40;;;;;;5132000;28;20021;-77
2022/06/16 06:58:38;;;;;;;31.42;8.27;;;26.40;85.00;;;;;;5132611;28;20035;-72
2022/06/16 07:01:06;;;;;;;16.83;7.32;;;26.10;77.70;;;;;;5131884;28;20050;-75
2022/06/16 07:03:32;;;;;;;21.35;7.95;;;26.60;78.20;;;;;;5132039;27;20007;-79
2022/06/16 07:06:01;;;;;;;16.45;8.95;;;26.60;77.50;;;;;;5131897;28;20031;-78
2022/06/16 07:08:28;;;;;;;20.73;10.25;;;27.10;77.30;;;;;;5131614;28;20030;-78
2022/06/16 07:10:55;;;;;;;16.10;5.75;;;27.20;72.90;;;;;;5132964;27;20079;-77
2022/06/16 07:13:20;;;;;;;10.25;3.67;;;26.30;69.60;;;;;;5132719;27;20034;-76
2022/06/16 07:15:47;;;;;;;10.38;4.50;;;26.70;70.10;;;;;;5122887;27;20388;-79
2022/06/16 07:18:13;;;;;;;22.02;7.65;;;25.60;69.10;;;;;;5135450;27;20156;-77
2022/06/16 07:20:39;;;;;;;18.45;6.63;;;26.70;71.30;;;;;;5135365;27;20105;-78
2022/06/16 07:23:05;;;;;;;25.52;7.32;;;27.10;72.30;;;;;;5122502;27;20500;-77
2022/06/16 07:25:31;;;;;;;16.77;6.40;;;27.50;69.60;;;;;;5135557;27;20346;-79
2022/06/16 07:27:58;;;;;;;17.73;8.48;;;27.70;72.10;;;;;;5135772;27;20027;-79
2022/06/16 07:30:24;;;;;;;21.70;8.48;;;27.80;70.40;;;;;;5135720;27;20023;-78
2022/06/16 07:32:51;;;;;;;17.35;8.23;;;27.50;69.10;;;;;;5135786;27;20050;-74
2022/06/16 07:35:23;;;;;;;24.20;6.88;;;27.70;69.30;;;;;;5135407;27;20047;-78
2022/06/16 07:37:49;;;;;;;22.98;7.82;;;28.20;70.80;;;;;;5135937;27;20051;-79
2022/06/16 07:40:16;;;;;;;26.48;7.53;;;28.60;72.80;;;;;;5134844;27;20076;-78
2022/06/16 07:42:44;;;;;;;25.48;8.07;;;28.50;69.40;;;;;;5135472;27;20027;-79
2022/06/16 07:45:11;;;;;;;20.27;7.00;;;;;;;;;;5135034;27;20072;-75
2022/06/16 07:47:37;;;;;;;20.38;7.10;;;28.50;67.30;;;;;;5135346;27;20051;-79
2022/06/16 07:50:08;;;;;;;16.55;6.82;;;28.50;68.10;;;;;;5116565;27;20082;-79
2022/06/16 07:52:35;;;;;;;16.08;6.13;;;28.70;69.00;;;;;;5134635;27;20061;-78
2022/06/16 07:55:01;;;;;;;11.68;5.10;;;29.10;67.60;;;;;;5135125;27;20019;-75
2022/06/16 07:57:27;;;;;;;13.07;5.15;;;29.40;67.90;;;;;;5131663;27;20084;-78
2022/06/16 07:59:54;;;;;;;14.60;5.35;;;29.00;66.10;;;;;;5124045;27;20019;-79
2022/06/16 08:02:20;;;;;;;14.55;6.53;;;29.20;68.00;;;;;;5135188;27;20122;-78
2022/06/16 08:04:46;;;;;;;8.43;4.80;;;29.20;65.70;;;;;;5134897;27;20068;-78
2022/06/16 08:07:12;;;;;;;14.15;5.65;;;28.20;66.90;;;;;;5134847;27;20031;-76
2022/06/16 08:09:39;;;;;;;7.80;4.40;;;28.60;66.10;;;;;;5134191;27;20043;-78
2022/06/16 08:12:09;;;;;;;8.23;3.58;;;28.60;66.10;;;;;;5134656;27;20041;-75
2022/06/16 08:14:39;;;;;;;7.82;3.97;;;29.00;66.00;;;;;;5134645;27;20068;-63
2022/06/16 08:17:08;;;;;;;10.63;3.45;;;29.20;62.60;;;;;;5135371;27;20019;-77
2022/06/16 08:19:34;;;;;;;10.25;3.80;;;29.60;62.30;;;;;;5134565;27;20362;-76
2022/06/16 08:22:00;;;;;;;5.65;2.83;;;28.60;61.40;;;;;;5128521;27;20027;-77
2022/06/16 08:24:26;;;;;;;15.65;2.75;;;28.30;63.70;;;;;;5125787;27;20027;-77
2022/06/16 08:26:52;;;;;;;6.93;2.60;;;28.10;59.80;;;;;;5134346;27;20016;-78
2022/06/16 08:29:19;;;;;;;3.20;2.03;;;28.30;61.40;;;;;;5134961;27;20064;-79
2022/06/16 08:31:45;;;;;;;6.43;2.50;;;28.20;60.00;;;;;;5134510;27;20035;-78
2022/06/16 08:34:12;;;;;;;22.45;4.03;;;27.80;59.10;;;;;;5134473;27;20027;-79
2022/06/16 08:36:38;;;;;;;5.45;2.30;;;27.80;59.60;;;;;;5134195;27;20681;-79
2022/06/16 08:39:06;;;;;;;4.72;2.60;;;27.60;59.30;;;;;;5133990;27;20019;-79
2022/06/16 08:41:45;;;;;;;10.55;2.78;;;27.90;61.60;;;;;;5133831;27;20054;-80
2022/06/16 08:44:24;;;;;;;6.13;2.03;;;28.20;61.50;;;;;;5134414;27;20100;-79
2022/06/16 08:47:05;;;;;;;4.82;2.85;;;27.70;60.10;;;;;;5134106;27;20042;-78
2022/06/16 08:50:02;;;;;;;3.72;2.50;;;28.40;62.60;;;;;;5121673;27;20043;-78
2022/06/16 08:52:49;;;;;;;5.75;2.65;;;28.40;61.30;;;;;;5030937;28;20054;-80
2022/06/16 08:55:29;;;;;;;7.10;2.53;;;27.70;60.90;;;;;;5030219;28;20029;-76
2022/06/16 08:58:10;;;;;;;6.75;2.75;;;28.30;61.30;;;;;;5030686;28;20318;-77
2022/06/16 09:00:38;;;;;;;4.03;2.38;;;28.60;62.00;;;;;;5030636;28;20033;-78
2022/06/16 09:03:11;;;;;;;5.38;2.53;;;28.50;62.60;;;;;;5031032;28;20029;-74
2022/06/16 09:05:50;;;;;;;12.80;3.00;;;28.40;61.30;;;;;;5030337;28;20541;-79
2022/06/16 09:08:52;;;;;;;4.70;2.78;;;28.60;61.40;;;;;;5030181;28;20060;-79
2022/06/16 09:12:03;;;;;;;4.38;2.40;;;28.90;63.20;;;;;;5029871;28;20439;-79
2022/06/16 09:17:51;;;;;;;4.55;2.22;;;29.40;61.00;;;;;;5029741;28;20820;-79
2022/06/16 09:20:26;;;;;;;6.15;2.65;;;29.40;59.80;;;;;;4932614;29;20513;-78
2022/06/16 09:23:26;;;;;;;3.95;1.92;;;29.20;58.40;;;;;;4936205;29;20083;-78
2022/06/16 09:25:52;;;;;;;9.30;2.40;;;29.20;59.20;;;;;;4932903;29;20486;-78
2022/06/16 09:28:31;;;;;;;3.50;2.10;;;28.70;58.00;;;;;;4944025;28;20136;-78
2022/06/16 09:31:01;;;;;;;4.25;2.00;;;29.00;60.10;;;;;;5029981;28;20451;-77
2022/06/16 09:33:34;;;;;;;6.00;2.25;;;28.90;58.60;;;;;;5029355;28;20468;-79
2022/06/16 09:36:34;;;;;;;2.13;1.65;;;29.00;58.90;;;;;;5030197;28;20466;-80
2022/06/16 09:39:33;;;;;;;5.45;2.20;;;28.50;56.80;;;;;;4990546;28;20147;-78
2022/06/16 09:45:08;;;;;;;3.80;2.17;;;28.90;60.70;;;;;;4990286;28;20089;-76
2022/06/16 09:47:54;;;;;;;3.35;2.17;;;29.20;58.80;;;;;;4990859;28;20101;-80
2022/06/16 09:50:49;;;;;;;3.03;1.65;;;29.10;56.10;;;;;;4931967;29;20055;-78
2022/06/16 09:53:38;;;;;;;2.22;1.63;;;29.30;56.80;;;;;;4932330;29;20052;-79
2022/06/16 09:56:16;;;;;;;3.28;1.90;;;29.30;58.10;;;;;;4932495;29;20115;-77
2022/06/16 09:58:48;;;;;;;2.67;1.80;;;29.50;58.30;;;;;;4990173;28;20081;-78
2022/06/16 10:01:15;;;;;;;;;;;29.80;59.30;;;;;;4990359;28;20039;-78
2022/06/16 10:03:56;;;;;;;4.10;1.83;;;29.80;55.60;;;;;;4990203;28;20455;-78
2022/06/16 10:06:27;;;;;;;6.88;2.22;;;29.30;55.80;;;;;;4990634;28;20039;-79
2022/06/16 10:09:12;;;;;;;2.25;1.73;;;28.90;56.60;;;;;;4990227;28;20434;-75
2022/06/16 10:11:46;;;;;;;3.63;1.92;;;28.90;59.60;;;;;;4978510;28;20038;-80
2022/06/16 10:14:29;;;;;;;6.93;2.45;;;29.10;59.00;;;;;;5002845;28;20503;-78
2022/06/16 10:17:10;;;;;;;5.72;2.40;;;29.00;61.00;;;;;;5029452;28;20083;-79
2022/06/16 10:19:43;;;;;;;6.75;2.15;;;29.00;59.60;;;;;;5032091;28;20039;-78
2022/06/16 10:22:13;;;;;;;2.47;1.95;;;29.00;60.40;;;;;;5038752;28;20041;-78
2022/06/16 10:24:49;;;;;;;3.78;2.17;;;28.90;61.20;;;;;;5029303;28;20052;-77
2022/06/16 10:27:18;;;;;;;2.13;1.60;;;28.80;59.30;;;;;;5072500;28;20562;-79
2022/06/16 10:30:22;;;;;;;5.80;2.30;;;29.00;60.00;;;;;;5132268;28;20015;-79
2022/06/16 10:33:10;;;;;;;6.88;2.35;;;28.60;58.50;;;;;;5121820;28;20031;-79
2022/06/16 10:35:37;;;;;;;5.10;2.47;;;28.30;58.60;;;;;;5132613;28;20031;-79
2022/06/16 10:38:03;;;;;;;7.07;2.03;;;28.80;57.80;;;;;;5132371;28;20027;-78
2022/06/16 10:40:40;;;;;;;5.93;2.00;;;29.10;57.80;;;;;;5131999;27;20075;-77
2022/06/16 10:43:11;;;;;;;5.18;1.75;;;29.00;58.40;;;;;;5132056;28;20485;-77
2022/06/16 10:45:38;;;;;;;4.70;2.30;;;29.30;56.80;;;;;;5120477;27;20503;-78
2022/06/16 10:48:10;;;;;;;5.10;2.47;;;29.30;56.60;;;;;;5136466;27;20024;-78
2022/06/16 10:50:45;;;;;;;4.80;2.17;;;29.50;58.30;;;;;;5136028;27;20311;-77
2022/06/16 10:53:24;;;;;;;4.28;2.20;;;29.70;58.00;;;;;;5136322;27;20047;-77
2022/06/16 10:55:56;;;;;;;5.68;1.92;;;28.50;55.40;;;;;;5136385;27;20055;-79
2022/06/16 10:58:24;;;;;;;2.25;1.40;;;28.50;57.10;;;;;;5136163;27;20102;-78
2022/06/16 11:01:08;;;;;;;15.02;3.42;;;29.10;58.90;;;;;;5135923;27;20059;-80
2022/06/16 11:03:40;;;;;;;7.78;2.35;;;28.90;56.70;;;;;;5135091;27;20038;-77
2022/06/16 11:06:07;;;;;;;4.50;2.35;;;28.70;55.70;;;;;;5135033;27;20611;-75
2022/06/16 11:08:39;;;;;;;6.82;2.67;;;29.10;57.50;;;;;;5116989;27;20058;-77
2022/06/16 11:11:05;;;;;;;;;;;28.90;59.80;;;;;;5135862;27;20023;-76
2022/06/16 11:13:49;;;;;;;4.53;2.08;;;29.10;55.10;;;;;;5131566;27;19955;-79
2022/06/16 11:16:30;;;;;;;12.23;2.83;;;29.20;56.80;;;;;;5127112;27;20035;-78
2022/06/16 11:19:00;;;;;;;4.68;2.47;;;29.50;57.00;;;;;;5135342;27;20023;-77
2022/06/16 11:21:30;;;;;;;4.05;2.50;;;29.30;54.40;;;;;;5135010;27;20027;-78
2022/06/16 11:23:59;;;;;;;3.80;2.30;;;29.10;55.70;;;;;;5135052;27;20019;-77
2022/06/16 11:26:41;;;;;;;4.90;2.40;;;29.00;55.10;;;;;;5135016;27;20022;-79
2022/06/16 11:29:10;;;;;;;;;;;28.90;55.60;;;;;;5123554;27;20023;-76
2022/06/16 11:31:46;;;;;;;3.35;2.13;;;28.80;54.50;;;;;;5135594;27;19919;-78
2022/06/16 11:34:20;;;;;;;10.38;2.30;;;28.60;55.30;;;;;;5134729;27;20092;-79
2022/06/16 11:37:05;;;;;;;13.70;2.50;;;28.70;55.10;;;;;;5134456;27;20034;-72
2022/06/16 11:39:43;;;;;;;4.55;2.20;;;28.90;56.10;;;;;;5134401;27;20019;-77
2022/06/16 11:42:43;;;;;;;4.43;2.38;;;29.20;56.00;;;;;;5134694;27;20019;-77
2022/06/16 11:45:21;;;;;;;11.75;2.88;;;29.30;56.50;;;;;;5135289;27;20023;-77
2022/06/16 11:48:28;;;;;;;6.30;2.40;;;29.40;57.50;;;;;;5135276;27;20118;-78
2022/06/16 11:51:20;;;;;;;4.07;2.58;;;29.40;57.80;;;;;;5014651;28;20416;-75
2022/06/16 11:54:00;;;;;;;6.38;2.30;;;29.30;54.80;;;;;;4928024;29;20063;-78
2022/06/16 11:56:53;;;;;;;5.25;2.25;;;29.20;56.50;;;;;;4914171;29;20040;-79
2022/06/16 11:59:39;;;;;;;6.00;2.67;;;29.30;55.70;;;;;;4914457;29;20044;-78
2022/06/16 12:02:24;;;;;;;3.55;1.90;;;29.30;57.30;;;;;;4914720;29;20198;-76
2022/06/16 12:05:11;;;;;;;4.18;2.50;;;29.30;54.90;;;;;;4914866;29;20123;-78
2022/06/16 12:07:39;;;;;;;5.95;2.45;;;29.30;54.80;;;;;;4914363;29;20423;-75
2022/06/16 12:10:14;;;;;;;4.07;2.25;;;29.40;57.90;;;;;;4914480;29;20020;-78
2022/06/16 12:12:40;;;;;;;4.55;2.45;;;29.60;55.10;;;;;;4914534;29;20056;-80
2022/06/16 12:15:25;;;;;;;3.28;2.17;;;29.70;55.20;;;;;;4914502;29;20032;-78
2022/06/16 12:18:20;;;;;;;16.05;2.75;;;29.50;53.20;;;;;;4914161;29;20542;-77
2022/06/16 12:21:06;;;;;;;5.18;2.47;;;29.10;53.30;;;;;;4901655;29;20047;-78
2022/06/16 12:23:54;;;;;;;6.47;2.28;;;29.10;54.90;;;;;;4914030;29;20375;-75
2022/06/16 12:26:32;;;;;;;6.03;2.10;;;29.30;55.40;;;;;;4914243;29;20036;-78
2022/06/16 12:29:21;;;;;;;5.82;2.30;;;29.20;55.00;;;;;;4985147;28;20113;-74
2022/06/16 12:32:14;;;;;;;6.25;2.38;;;29.30;54.20;;;;;;5083073;28;20040;-74
2022/06/16 12:34:55;;;;;;;8.68;2.55;;;29.30;53.50;;;;;;5093139;28;20528;-78
2022/06/16 12:37:25;;;;;;;5.55;2.15;;;29.20;54.10;;;;;;5092907;28;20038;-78
2022/06/16 12:40:05;;;;;;;9.88;3.00;;;29.40;53.30;;;;;;5092942;28;20024;-79
2022/06/16 12:42:37;;;;;;;8.32;2.83;;;29.60;55.30;;;;;;5092794;28;20489;-79
2022/06/16 12:45:27;;;;;;;6.10;2.88;;;29.50;55.20;;;;;;5093106;28;20046;-78
2022/06/16 12:47:58;;;;;;;8.30;3.30;;;29.60;56.40;;;;;;5092228;28;20055;-79
2022/06/16 12:50:27;;;;;;;;;;;29.40;55.10;;;;;;5094434;28;20521;-78
2022/06/16 12:53:13;;;;;;;4.55;2.83;;;29.60;56.20;;;;;;5113144;28;20399;-79
2022/06/16 12:55:51;;;;;;;10.77;3.05;;;29.60;56.00;;;;;;5113311;28;20059;-75
2022/06/16 12:58:24;;;;;;;4.50;2.40;;;29.60;56.90;;;;;;5112918;28;20042;-79
2022/06/16 13:00:54;;;;;;;3.40;2.67;;;30.00;56.50;;;;;;5112959;28;20024;-78
2022/06/16 13:03:36;;;;;;;6.72;2.78;;;29.80;55.40;;;;;;5113539;28;20031;-78
2022/06/16 13:06:04;;;;;;;5.10;3.05;;;29.80;56.10;;;;;;5112602;28;20067;-79
2022/06/16 13:08:34;;;;;;;5.78;2.97;;;29.90;57.00;;;;;;5111616;28;20016;-77
2022/06/16 13:11:06;;;;;;;6.03;2.47;;;29.60;54.70;;;;;;5112330;28;20036;-79
2022/06/16 13:13:40;;;;;;;4.65;2.42;;;29.70;55.90;;;;;;5112303;28;20128;-77
2022/06/16 13:16:08;;;;;;;6.22;2.60;;;29.80;54.80;;;;;;5112426;28;20661;-78
2022/06/16 13:18:46;;;;;;;7.78;2.80;;;29.80;55.50;;;;;;5082429;28;20388;-72
2022/06/16 13:21:23;;;;;;;4.97;2.63;;;29.50;54.80;;;;;;5110332;28;20476;-77
2022/06/16 13:23:55;;;;;;;5.80;2.47;;;29.50;54.30;;;;;;5091678;28;20043;-77
2022/06/16 13:26:24;;;;;;;4.38;2.53;;;29.50;55.60;;;;;;5090933;28;20111;-74
2022/06/16 13:29:15;;;;;;;5.20;2.35;;;29.70;57.70;;;;;;5096593;28;20037;-76
2022/06/16 13:31:43;;;;;;;3.40;2.00;;;29.60;56.10;;;;;;5093277;28;20552;-73
2022/06/16 13:34:29;;;;;;;10.77;2.40;;;29.40;55.70;;;;;;5110124;28;20034;-76
2022/06/16 13:36:55;;;;;;;5.32;2.60;;;29.50;56.70;;;;;;5085624;28;20115;-74
2022/06/16 13:39:55;;;;;;;4.97;2.40;;;29.30;54.70;;;;;;5091399;28;20526;-75
2022/06/16 13:42:41;;;;;;;3.05;2.10;;;29.70;56.80;;;;;;5090614;28;20073;-72
2022/06/16 13:45:10;;;;;;;7.75;2.60;;;30.10;61.80;;;;;;5100380;28;20088;-72
2022/06/16 13:47:36;;;;;;;4.50;2.35;;;30.00;55.10;;;;;;5103980;28;20024;-64
2022/06/16 13:50:08;;;;;;;3.80;2.30;;;29.90;55.60;;;;;;5108050;27;20047;-72
2022/06/16 13:52:41;;;;;;;5.43;2.42;;;29.80;57.50;;;;;;5128954;27;20039;-75